Time;durP1;ratioP1;P1;durP2;ratioP2;P2;SDS_P1;SDS_P2;PMS_P1;PMS_P2;Temp;Humidity;BMP_temperature;BMP_pressure;BME280_temperature;BME280_humidity;BME280_pressure;Samples;Min_cycle;Max_cycle;Signal;HPM_P1;HPM_P2
2023/09/19 20:00:59;;;;;;;5.63;3.00;;;;;;;14.17;100.00;98329.28;10554705;27;1332221;-77
2023/09/19 20:06:00;;;;;;;4.33;2.60;;;;;;;14.03;100.00;98328.91;10543717;28;20044;-78
2023/09/19 20:11:06;;;;;;;4.60;3.22;;;;;;;13.86;100.00;98338.06;10537316;28;20286;-77
2023/09/19 20:16:07;;;;;;;3.40;2.85;;;;;;;13.87;100.00;98337.72;10543820;28;20053;-77
2023/09/19 20:21:15;;;;;;;4.88;3.13;;;;;;;13.91;100.00;98327.03;10533294;28;20400;-77
2023/09/19 20:26:16;;;;;;;5.78;2.97;;;;;;;13.93;100.00;98330.19;10530653;28;20097;-78
2023/09/19 20:31:16;;;;;;;4.03;3.00;;;;;;;13.92;100.00;98332.09;10532002;28;20032;-77
2023/09/19 20:36:16;;;;;;;3.65;3.03;;;;;;;13.89;100.00;98340.84;10498796;28;20473;-77
2023/09/19 20:41:17;;;;;;;7.15;4.30;;;;;;;13.91;100.00;98335.13;10493167;28;20118;-77
2023/09/19 20:46:17;;;;;;;7.97;3.30;;;;;;;13.89;100.00;98338.16;10491604;28;20056;-76
2023/09/19 20:51:25;;;;;;;4.78;3.42;;;;;;;13.70;100.00;98327.22;10494518;28;20067;-77
2023/09/19 20:56:25;;;;;;;7.45;3.45;;;;;;;13.58;100.00;98327.25;10485273;28;20498;-78
2023/09/19 21:01:28;;;;;;;3.67;3.00;;;;;;;13.60;100.00;98336.56;10497154;28;20047;-77
2023/09/19 21:06:29;;;;;;;4.30;3.47;;;;;;;13.39;100.00;98344.03;10490539;28;20507;-77
2023/09/19 21:11:30;;;;;;;5.65;3.58;;;;;;;13.30;100.00;98343.38;10466481;28;20052;-78
2023/09/19 21:16:30;;;;;;;3.65;3.25;;;;;;;13.26;100.00;98350.56;10462280;28;20040;-77
2023/09/19 21:21:34;;;;;;;5.68;3.60;;;;;;;13.31;100.00;98337.63;10470087;28;20040;-78
2023/09/19 21:26:35;;;;;;;3.70;3.30;;;;;;;13.27;100.00;98346.75;10465249;28;20048;-79
2023/09/19 21:31:35;;;;;;;7.45;3.78;;;;;;;13.14;100.00;98342.44;10464687;28;20039;-79
2023/09/19 21:36:35;;;;;;;4.57;3.58;;;;;;;13.17;100.00;98347.97;10463403;28;20058;-79
2023/09/19 21:41:36;;;;;;;5.57;3.47;;;;;;;13.18;100.00;98346.06;10460442;28;20033;-78
2023/09/19 21:46:37;;;;;;;6.68;3.60;;;;;;;13.19;100.00;98344.94;10460893;28;20109;-78
2023/09/19 21:51:37;;;;;;;3.92;3.20;;;;;;;13.22;100.00;98333.50;10459718;28;20523;-78
2023/09/19 21:56:38;;;;;;;4.10;3.25;;;;;;;13.25;100.00;98330.91;10454101;28;20083;-78
2023/09/19 22:01:39;;;;;;;5.00;3.13;;;;;;;13.24;100.00;98329.31;10458385;28;20572;-78
2023/09/19 22:06:39;;;;;;;6.32;3.70;;;;;;;13.20;100.00;98328.44;10418004;28;20556;-75
2023/09/19 22:11:40;;;;;;;4.57;3.35;;;;;;;13.09;100.00;98321.91;10441587;28;20037;-76
2023/09/19 22:16:42;;;;;;;4.50;3.60;;;;;;;12.99;100.00;98322.38;10451452;28;20036;-77
2023/09/19 22:21:46;;;;;;;5.30;3.40;;;;;;;13.00;100.00;98321.25;10465780;28;20452;-78
2023/09/19 22:26:47;;;;;;;4.93;3.60;;;;;;;13.05;100.00;98321.78;10460305;28;20980;-76
2023/09/19 22:31:50;;;;;;;6.82;3.65;;;;;;;13.03;100.00;98323.25;10461542;28;20098;-77
2023/09/19 22:36:54;;;;;;;4.40;3.40;;;;;;;12.96;100.00;98326.50;10470056;28;20071;-78
2023/09/19 22:42:04;;;;;;;5.82;3.60;;;;;;;12.86;100.00;98326.16;10460172;28;20045;-77
2023/09/19 22:47:05;;;;;;;4.00;3.50;;;;;;;12.80;100.00;98328.28;10462706;28;20040;-76
2023/09/19 22:52:08;;;;;;;5.85;4.00;;;;;;;12.77;100.00;98339.75;10448912;28;20437;-75
2023/09/19 22:57:11;;;;;;;5.43;3.97;;;;;;;12.81;100.00;98336.06;10447132;28;20079;-76
2023/09/19 23:02:13;;;;;;;7.20;4.10;;;;;;;12.76;100.00;98341.66;10465475;28;20370;-76
2023/09/19 23:07:14;;;;;;;5.47;3.97;;;;;;;12.74;100.00;98348.50;10460190;28;20044;-75
2023/09/19 23:12:19;;;;;;;4.32;3.30;;;;;;;12.74;100.00;98349.28;10462380;28;20413;-75
2023/09/19 23:17:22;;;;;;;5.18;3.90;;;;;;;12.69;100.00;98346.00;10461572;28;20051;-76
2023/09/19 23:22:23;;;;;;;5.40;3.83;;;;;;;12.48;100.00;98349.56;10466842;28;20606;-76
2023/09/19 23:27:24;;;;;;;7.68;4.25;;;;;;;12.35;100.00;98358.75;10457928;28;20062;-77
2023/09/19 23:32:24;;;;;;;6.13;3.90;;;;;;;12.33;100.00;98368.25;10448354;28;20810;-77
2023/09/19 23:37:25;;;;;;;5.40;4.05;;;;;;;12.30;100.00;98371.63;10452336;28;20320;-77
2023/09/19 23:42:27;;;;;;;4.63;3.55;;;;;;;12.24;100.00;98365.66;10455057;28;20055;-78
2023/09/19 23:47:28;;;;;;;4.67;3.57;;;;;;;12.15;100.00;98362.25;10449067;28;20496;-77
2023/09/19 23:52:28;;;;;;;5.20;3.63;;;;;;;12.05;100.00;98368.81;10451752;28;20309;-79
2023/09/19 23:57:30;;;;;;;6.15;3.75;;;;;;;11.98;100.00;98365.09;10450493;28;20481;-77
